Sarfaq Ittuk — OWDD — position and weather

sailwx.info

Track history (hours):
 
Tides and Currents Weather Stations Pressure Air Temp Water Temp Dewpoint Dewpoint Depression Visibility Wind Speed Wind Dir Waves Ship Positions

Sarfaq Ittuk

Last reported at 2019-Jul-19 19:00 UTC. Time now 2019-Jul-19 19:29 UTC.
Position N 64°10' W 051°43'.

Length 73 m; beam 11.1 m; draft 3.7 m.

Type: Passenger vessel. MMSI: 331000499.

Date/timePositionNaut miles runAvg speedWind from/ knotsBaromVisibWave heightAir tempDewpointWater temp
2019-Jul-19 19:00N 64°10' W 051°43'0 0.0
2019-Jul-19 18:30N 64°10' W 051°43'0 0.0
2019-Jul-19 18:00N 64°10' W 051°43'0 0.0
2019-Jul-19 17:30N 64°10' W 051°43'0 0.0
2019-Jul-19 17:00N 64°10' W 051°43'0 0.0
2019-Jul-19 16:30N 64°10' W 051°43'0 0.0
2019-Jul-19 16:00N 64°10' W 051°43'0 0.0
2019-Jul-19 15:30N 64°10' W 051°43'0 0.0
2019-Jul-19 15:00N 64°10' W 051°43'0 0.0
2019-Jul-19 14:30N 64°10' W 051°43'0 0.0
2019-Jul-19 14:00N 64°10' W 051°43'0 0.0
2019-Jul-19 13:30N 64°10' W 051°43'0 0.0
2019-Jul-19 13:00N 64°10' W 051°43'0 0.0
2019-Jul-19 12:30N 64°10' W 051°43'0 0.0
2019-Jul-19 12:00N 64°10' W 051°43'0 0.0
2019-Jul-19 11:30N 64°10' W 051°43'0 0.0
2019-Jul-19 11:00N 64°10' W 051°43'0 0.0
2019-Jul-19 10:30N 64°10' W 051°43'0 0.0
2019-Jul-19 10:00N 64°10' W 051°43'0 0.0
2019-Jul-19 09:30N 64°10' W 051°43'2 3.4
2019-Jul-19 09:00N 64°09' W 051°42'5 9.6
2019-Jul-19 08:30N 64°04' W 051°38'510.2
2019-Jul-19 08:00N 63°59' W 051°40'510.2
2019-Jul-19 07:30N 63°55' W 051°33'510.0
2019-Jul-19 07:00N 63°50' W 051°35'5 9.4
2019-Jul-19 06:31N 63°45' W 051°36'7 9.7
2019-Jul-19 05:46N 63°38' W 051°39'  
2019-Jul-16 15:27N 63°26' W 051°31'4 9.6
2019-Jul-16 15:00N 63°30' W 051°35'14 9.1
2019-Jul-16 13:29N 63°44' W 051°36'511.1
2019-Jul-16 13:00N 63°49' W 051°35'611.6
2019-Jul-16 12:28N 63°55' W 051°33'511.7
2019-Jul-16 12:00N 63°60' W 051°41'612.1
2019-Jul-16 11:30N 64°06' W 051°39'5 9.9
2019-Jul-16 11:00N 64°10' W 051°43'0 0.0
2019-Jul-16 10:30N 64°10' W 051°43'0 0.0
2019-Jul-16 10:00N 64°10' W 051°43'0 0.0
2019-Jul-16 09:30N 64°10' W 051°43'0 0.0
2019-Jul-16 09:00N 64°10' W 051°43'2 4.4
2019-Jul-16 08:30N 64°09' W 051°47'611.6
2019-Jul-16 08:00N 64°06' W 051°59'611.1
2019-Jul-16 07:30N 64°04' W 052°11'611.8
2019-Jul-16 07:00N 64°09' W 052°19'510.8
2019-Jul-16 06:30N 64°14' W 052°24'510.9
2019-Jul-16 06:01N 64°19' W 052°27'510.9
2019-Jul-16 05:30N 64°24' W 052°30'611.1
2019-Jul-16 05:00N 64°30' W 052°33'611.1
2019-Jul-16 04:30N 64°35' W 052°35'611.3
2019-Jul-16 04:00N 64°41' W 052°38'611.5
2019-Jul-16 03:30N 64°46' W 052°40'611.6
2019-Jul-16 03:00N 64°52' W 052°43'611.4
2019-Jul-16 02:30N 64°58' W 052°45'611.6
2019-Jul-16 02:00N 65°03' W 052°48'611.6
2019-Jul-16 01:30N 65°09' W 052°51'611.8
2019-Jul-16 01:00N 65°15' W 052°51'711.9
2019-Jul-16 00:27N 65°22' W 052°51'3 2.7
2019-Jul-15 23:19N 65°24' W 052°54'410.7
2019-Jul-15 22:57N 65°28' W 052°52'511.2
2019-Jul-15 22:30N 65°33' W 052°51'14 8.8
2019-Jul-15 20:57N 65°40' W 053°20'511.1
2019-Jul-15 20:29N 65°45' W 053°19'5 8.9
2019-Jul-15 19:58N 65°50' W 053°21'3 4.0
2019-Jul-15 19:12N 65°51' W 053°28'211.8
2019-Jul-15 19:00N 65°53' W 053°33'611.4
2019-Jul-15 18:28N 65°58' W 053°40'610.3
2019-Jul-15 17:53N 66°03' W 053°48'411.3
2019-Jul-15 17:30N 66°07' W 053°51'18 0.3
2019-Jul-13 14:16N 65°52' W 053°29'5 4.4
2019-Jul-13 13:05N 65°49' W 053°19'44 7.0
2019-Jul-13 06:44N 65°06' W 052°49'2 9.3
2019-Jul-13 06:30N 65°04' W 052°48'5 9.6
2019-Jul-13 06:00N 64°59' W 052°46'5 9.7
2019-Jul-13 05:30N 64°54' W 052°44'510.0
2019-Jul-13 05:00N 64°50' W 052°42'510.0
2019-Jul-13 04:30N 64°45' W 052°40'5 9.9
2019-Jul-13 04:00N 64°40' W 052°37'5 9.8
2019-Jul-13 03:30N 64°35' W 052°35'510.1
2019-Jul-13 03:00N 64°30' W 052°33'510.5
2019-Jul-13 02:30N 64°25' W 052°31'510.5
2019-Jul-13 02:00N 64°20' W 052°28'510.5
2019-Jul-13 01:30N 64°15' W 052°25'510.5
2019-Jul-13 01:00N 64°10' W 052°21'510.7
2019-Jul-13 00:30N 64°06' W 052°14'5 9.1
2019-Jul-13 00:00N 64°05' W 052°04'611.8
2019-Jul-12 23:30N 64°08' W 051°52'4 9.0
2019-Jul-12 23:00N 64°10' W 051°43'0 0.0
2019-Jul-12 22:31N 64°10' W 051°43'0 0.0
2019-Jul-12 22:00N 64°10' W 051°43'0 0.0
2019-Jul-12 21:30N 64°10' W 051°43'0 0.0
2019-Jul-12 21:00N 64°10' W 051°43'0 0.0
2019-Jul-12 20:30N 64°10' W 051°43'0 0.0
2019-Jul-12 20:01N 64°10' W 051°43'0 0.0
2019-Jul-12 19:30N 64°10' W 051°43'0 0.0
2019-Jul-12 19:00N 64°10' W 051°43'0 0.0
2019-Jul-12 18:30N 64°10' W 051°43'0 0.0
2019-Jul-12 18:00N 64°10' W 051°43'0 0.0
2019-Jul-12 17:30N 64°10' W 051°43'0 0.0
2019-Jul-12 17:00N 64°10' W 051°43'0 0.0
2019-Jul-12 16:30N 64°10' W 051°43'0 0.0
2019-Jul-12 16:00N 64°10' W 051°43'0 0.0
2019-Jul-12 15:30N 64°10' W 051°43'0 0.0
2019-Jul-12 15:00N 64°10' W 051°43'0 0.0
2019-Jul-12 14:30N 64°10' W 051°43'0 0.0
2019-Jul-12 14:00N 64°10' W 051°43'0 0.0
2019-Jul-12 13:30N 64°10' W 051°43'0 0.0
2019-Jul-12 13:00N 64°10' W 051°43'0 0.0
2019-Jul-12 12:30N 64°10' W 051°43'0 0.0
2019-Jul-12 12:00N 64°10' W 051°43'0 0.0
2019-Jul-12 11:30N 64°10' W 051°43'0 0.0
2019-Jul-12 11:00N 64°10' W 051°43'0 0.0
2019-Jul-12 10:30N 64°10' W 051°43'0 0.0
2019-Jul-12 10:00N 64°10' W 051°43'0 0.0
2019-Jul-12 09:30N 64°10' W 051°43'2 4.6
2019-Jul-12 09:00N 64°08' W 051°41'510.1
2019-Jul-12 08:30N 64°03' W 051°38'5 8.9
2019-Jul-12 07:59N 63°59' W 051°39'510.3
2019-Jul-12 07:30N 63°54' W 051°34'5 9.7
2019-Jul-12 07:00N 63°50' W 051°35'5 9.7
2019-Jul-12 06:30N 63°45' W 051°36'  
Track history (hours):
 
Tides and Currents Weather Stations Pressure Air Temp Water Temp Dewpoint Dewpoint Depression Visibility Wind Speed Wind Dir Waves Ship Positions

Sarfaq Ittuk

Last reported at 2019-Jul-19 19:00 UTC. Time now 2019-Jul-19 19:29 UTC.
Position N 64°10' W 051°43'.

Length 73 m; beam 11.1 m; draft 3.7 m.

Type: Passenger vessel. MMSI: 331000499.

Date/timePositionNaut miles runAvg speedWind from/ knotsBaromVisibWave heightAir tempDewpointWater temp
2019-Jul-19 19:00N 64°10' W 051°43'0 0.0
2019-Jul-19 18:30N 64°10' W 051°43'0 0.0
2019-Jul-19 18:00N 64°10' W 051°43'0 0.0
2019-Jul-19 17:30N 64°10' W 051°43'0 0.0
2019-Jul-19 17:00N 64°10' W 051°43'0 0.0
2019-Jul-19 16:30N 64°10' W 051°43'0 0.0
2019-Jul-19 16:00N 64°10' W 051°43'0 0.0
2019-Jul-19 15:30N 64°10' W 051°43'0 0.0
2019-Jul-19 15:00N 64°10' W 051°43'0 0.0
2019-Jul-19 14:30N 64°10' W 051°43'0 0.0
2019-Jul-19 14:00N 64°10' W 051°43'0 0.0
2019-Jul-19 13:30N 64°10' W 051°43'0 0.0
2019-Jul-19 13:00N 64°10' W 051°43'0 0.0
2019-Jul-19 12:30N 64°10' W 051°43'0 0.0
2019-Jul-19 12:00N 64°10' W 051°43'0 0.0
2019-Jul-19 11:30N 64°10' W 051°43'0 0.0
2019-Jul-19 11:00N 64°10' W 051°43'0 0.0
2019-Jul-19 10:30N 64°10' W 051°43'0 0.0
2019-Jul-19 10:00N 64°10' W 051°43'0 0.0
2019-Jul-19 09:30N 64°10' W 051°43'2 3.4
2019-Jul-19 09:00N 64°09' W 051°42'5 9.6
2019-Jul-19 08:30N 64°04' W 051°38'510.2
2019-Jul-19 08:00N 63°59' W 051°40'510.2
2019-Jul-19 07:30N 63°55' W 051°33'510.0
2019-Jul-19 07:00N 63°50' W 051°35'5 9.4
2019-Jul-19 06:31N 63°45' W 051°36'7 9.7
2019-Jul-19 05:46N 63°38' W 051°39'  
2019-Jul-16 15:27N 63°26' W 051°31'4 9.6
2019-Jul-16 15:00N 63°30' W 051°35'14 9.1
2019-Jul-16 13:29N 63°44' W 051°36'511.1
2019-Jul-16 13:00N 63°49' W 051°35'611.6
2019-Jul-16 12:28N 63°55' W 051°33'511.7
2019-Jul-16 12:00N 63°60' W 051°41'612.1
2019-Jul-16 11:30N 64°06' W 051°39'5 9.9
2019-Jul-16 11:00N 64°10' W 051°43'0 0.0
2019-Jul-16 10:30N 64°10' W 051°43'0 0.0
2019-Jul-16 10:00N 64°10' W 051°43'0 0.0
2019-Jul-16 09:30N 64°10' W 051°43'0 0.0
2019-Jul-16 09:00N 64°10' W 051°43'2 4.4
2019-Jul-16 08:30N 64°09' W 051°47'611.6
2019-Jul-16 08:00N 64°06' W 051°59'611.1
2019-Jul-16 07:30N 64°04' W 052°11'611.8
2019-Jul-16 07:00N 64°09' W 052°19'510.8
2019-Jul-16 06:30N 64°14' W 052°24'510.9
2019-Jul-16 06:01N 64°19' W 052°27'510.9
2019-Jul-16 05:30N 64°24' W 052°30'611.1
2019-Jul-16 05:00N 64°30' W 052°33'611.1
2019-Jul-16 04:30N 64°35' W 052°35'611.3
2019-Jul-16 04:00N 64°41' W 052°38'611.5
2019-Jul-16 03:30N 64°46' W 052°40'611.6
2019-Jul-16 03:00N 64°52' W 052°43'611.4
2019-Jul-16 02:30N 64°58' W 052°45'611.6
2019-Jul-16 02:00N 65°03' W 052°48'611.6
2019-Jul-16 01:30N 65°09' W 052°51'611.8
2019-Jul-16 01:00N 65°15' W 052°51'711.9
2019-Jul-16 00:27N 65°22' W 052°51'3 2.7
2019-Jul-15 23:19N 65°24' W 052°54'410.7
2019-Jul-15 22:57N 65°28' W 052°52'511.2
2019-Jul-15 22:30N 65°33' W 052°51'14 8.8
2019-Jul-15 20:57N 65°40' W 053°20'511.1
2019-Jul-15 20:29N 65°45' W 053°19'5 8.9
2019-Jul-15 19:58N 65°50' W 053°21'3 4.0
2019-Jul-15 19:12N 65°51' W 053°28'211.8
2019-Jul-15 19:00N 65°53' W 053°33'611.4
2019-Jul-15 18:28N 65°58' W 053°40'610.3
2019-Jul-15 17:53N 66°03' W 053°48'411.3
2019-Jul-15 17:30N 66°07' W 053°51'18 0.3
2019-Jul-13 14:16N 65°52' W 053°29'5 4.4
2019-Jul-13 13:05N 65°49' W 053°19'44 7.0
2019-Jul-13 06:44N 65°06' W 052°49'2 9.3
2019-Jul-13 06:30N 65°04' W 052°48'5 9.6
2019-Jul-13 06:00N 64°59' W 052°46'5 9.7
2019-Jul-13 05:30N 64°54' W 052°44'510.0
2019-Jul-13 05:00N 64°50' W 052°42'510.0
2019-Jul-13 04:30N 64°45' W 052°40'5 9.9
2019-Jul-13 04:00N 64°40' W 052°37'5 9.8
2019-Jul-13 03:30N 64°35' W 052°35'510.1
2019-Jul-13 03:00N 64°30' W 052°33'510.5
2019-Jul-13 02:30N 64°25' W 052°31'510.5
2019-Jul-13 02:00N 64°20' W 052°28'510.5
2019-Jul-13 01:30N 64°15' W 052°25'510.5
2019-Jul-13 01:00N 64°10' W 052°21'510.7
2019-Jul-13 00:30N 64°06' W 052°14'5 9.1
2019-Jul-13 00:00N 64°05' W 052°04'611.8
2019-Jul-12 23:30N 64°08' W 051°52'4 9.0
2019-Jul-12 23:00N 64°10' W 051°43'0 0.0
2019-Jul-12 22:31N 64°10' W 051°43'0 0.0
2019-Jul-12 22:00N 64°10' W 051°43'0 0.0
2019-Jul-12 21:30N 64°10' W 051°43'0 0.0
2019-Jul-12 21:00N 64°10' W 051°43'0 0.0
2019-Jul-12 20:30N 64°10' W 051°43'0 0.0
2019-Jul-12 20:01N 64°10' W 051°43'0 0.0
2019-Jul-12 19:30N 64°10' W 051°43'0 0.0
2019-Jul-12 19:00N 64°10' W 051°43'0 0.0
2019-Jul-12 18:30N 64°10' W 051°43'0 0.0
2019-Jul-12 18:00N 64°10' W 051°43'0 0.0
2019-Jul-12 17:30N 64°10' W 051°43'0 0.0
2019-Jul-12 17:00N 64°10' W 051°43'0 0.0
2019-Jul-12 16:30N 64°10' W 051°43'0 0.0
2019-Jul-12 16:00N 64°10' W 051°43'0 0.0
2019-Jul-12 15:30N 64°10' W 051°43'0 0.0
2019-Jul-12 15:00N 64°10' W 051°43'0 0.0
2019-Jul-12 14:30N 64°10' W 051°43'0 0.0
2019-Jul-12 14:00N 64°10' W 051°43'0 0.0
2019-Jul-12 13:30N 64°10' W 051°43'0 0.0
2019-Jul-12 13:00N 64°10' W 051°43'0 0.0
2019-Jul-12 12:30N 64°10' W 051°43'0 0.0
2019-Jul-12 12:00N 64°10' W 051°43'0 0.0
2019-Jul-12 11:30N 64°10' W 051°43'0 0.0
2019-Jul-12 11:00N 64°10' W 051°43'0 0.0
2019-Jul-12 10:30N 64°10' W 051°43'0 0.0
2019-Jul-12 10:00N 64°10' W 051°43'0 0.0
2019-Jul-12 09:30N 64°10' W 051°43'2 4.6
2019-Jul-12 09:00N 64°08' W 051°41'510.1
2019-Jul-12 08:30N 64°03' W 051°38'5 8.9
2019-Jul-12 07:59N 63°59' W 051°39'510.3
2019-Jul-12 07:30N 63°54' W 051°34'5 9.7
2019-Jul-12 07:00N 63°50' W 051°35'5 9.7
2019-Jul-12 06:30N 63°45' W 051°36'  

Dump ship's entire track history